createdAt,value
2019-04-30T00:00:51.226Z,99.90
2019-04-30T00:03:30.779Z,99.90
2019-04-30T00:06:00.613Z,99.90
2019-04-30T00:08:35.472Z,99.90
2019-04-30T00:11:02.278Z,99.90
2019-04-30T00:13:32.201Z,99.90
2019-04-30T00:16:05.343Z,99.90
2019-04-30T00:18:38.203Z,99.90
2019-04-30T00:21:10.095Z,99.90
2019-04-30T00:23:38.088Z,99.90
2019-04-30T00:26:10.286Z,99.90
2019-04-30T00:28:47.687Z,99.90
2019-04-30T00:31:17.611Z,99.90
2019-04-30T00:33:47.491Z,99.90
2019-04-30T00:36:17.885Z,99.90
2019-04-30T00:38:47.991Z,99.90
2019-04-30T00:41:19.483Z,99.90
2019-04-30T00:43:50.856Z,99.90
2019-04-30T00:46:25.302Z,99.90
2019-04-30T00:48:56.755Z,99.90
2019-04-30T00:51:26.842Z,99.90
2019-04-30T00:53:57.430Z,99.90
2019-04-30T00:56:28.337Z,99.90
2019-04-30T00:59:02.443Z,99.90
2019-04-30T01:01:51.507Z,99.90
2019-04-30T01:04:34.955Z,99.90
2019-04-30T01:07:10.608Z,99.90
2019-04-30T01:09:46.489Z,99.90
2019-04-30T01:12:19.135Z,99.90
2019-04-30T01:14:45.589Z,99.90
2019-04-30T01:17:15.659Z,99.90
2019-04-30T01:19:45.895Z,99.90
2019-04-30T01:22:21.579Z,99.90
2019-04-30T01:24:49.637Z,99.90
2019-04-30T01:27:20.086Z,99.90
2019-04-30T01:29:50.173Z,99.90
2019-04-30T01:32:21.103Z,99.90
2019-04-30T01:34:53.870Z,99.90
2019-04-30T01:37:28.702Z,99.90
2019-04-30T01:39:54.989Z,99.90
2019-04-30T01:42:25.211Z,99.90
2019-04-30T01:44:55.459Z,99.90
2019-04-30T01:47:27.617Z,99.90
2019-04-30T01:50:00.986Z,99.90
2019-04-30T01:52:49.331Z,99.90
2019-04-30T01:55:21.414Z,99.90
2019-04-30T01:58:10.651Z,99.90
2019-04-30T02:00:52.647Z,99.90
2019-04-30T02:03:22.874Z,99.90
2019-04-30T02:05:53.055Z,99.90
2019-04-30T02:08:22.886Z,99.90
2019-04-30T02:10:52.993Z,99.90
2019-04-30T02:13:23.712Z,99.90
2019-04-30T02:15:53.702Z,99.90
2019-04-30T02:18:23.548Z,99.90
2019-04-30T02:20:54.067Z,99.90
2019-04-30T02:23:23.858Z,99.90
2019-04-30T02:25:54.309Z,99.90
2019-04-30T02:28:25.089Z,99.90
2019-04-30T02:30:59.873Z,99.90
2019-04-30T02:33:30.629Z,99.90
2019-04-30T02:36:14.979Z,99.90
2019-04-30T02:38:49.414Z,99.90
2019-04-30T02:41:20.903Z,99.90
2019-04-30T02:43:51.125Z,99.90
2019-04-30T02:46:21.503Z,99.90
2019-04-30T02:48:52.093Z,99.90
2019-04-30T02:51:22.946Z,99.90
2019-04-30T02:54:24.626Z,99.90
2019-04-30T02:57:13.687Z,99.90
2019-04-30T03:00:05.779Z,99.90
2019-04-30T03:02:36.028Z,99.90
2019-04-30T03:05:10.239Z,99.90
2019-04-30T03:07:40.695Z,99.90
2019-04-30T03:10:11.200Z,99.90
2019-04-30T03:12:41.210Z,99.90
2019-04-30T03:15:11.350Z,99.90
2019-04-30T03:17:57.027Z,99.90
2019-04-30T03:20:49.763Z,99.90
2019-04-30T03:23:20.236Z,99.90
2019-04-30T03:25:50.537Z,99.90
2019-04-30T03:28:20.705Z,99.90
2019-04-30T03:30:56.729Z,99.90
2019-04-30T03:33:23.298Z,99.90
2019-04-30T03:35:55.388Z,99.90
2019-04-30T03:38:26.059Z,99.90
2019-04-30T03:40:56.160Z,99.90
2019-04-30T03:43:26.145Z,99.40
2019-04-30T03:45:56.093Z,99.80
2019-04-30T03:48:26.042Z,99.30
2019-04-30T03:50:57.385Z,99.30
2019-04-30T03:53:29.915Z,99.40
2019-04-30T03:56:01.461Z,99.40
2019-04-30T03:58:31.914Z,99.20
2019-04-30T04:01:20.260Z,99.60
2019-04-30T04:04:12.778Z,99.90
2019-04-30T04:06:49.019Z,99.10
2019-04-30T04:09:29.791Z,98.60
2019-04-30T04:12:20.479Z,97.90
2019-04-30T04:14:50.969Z,97.70
2019-04-30T04:17:21.054Z,97.10
2019-04-30T04:19:51.608Z,97.00
2019-04-30T04:22:21.504Z,97.60
2019-04-30T04:24:52.481Z,97.90
2019-04-30T04:27:22.771Z,97.90
2019-04-30T04:29:52.731Z,97.50
2019-04-30T04:32:24.322Z,97.20
2019-04-30T04:34:55.625Z,96.60
2019-04-30T04:37:25.430Z,95.90
2019-04-30T04:39:55.353Z,95.70
2019-04-30T04:42:25.467Z,95.40
2019-04-30T04:44:55.359Z,96.00
2019-04-30T04:47:25.590Z,96.00
2019-04-30T04:49:55.414Z,95.80
2019-04-30T04:52:25.330Z,93.80
2019-04-30T04:54:55.246Z,94.00
2019-04-30T04:57:26.085Z,94.50
2019-04-30T04:59:56.423Z,92.80
2019-04-30T05:02:32.805Z,92.50
2019-04-30T05:05:02.119Z,91.20
2019-04-30T05:07:32.557Z,91.90
2019-04-30T05:10:02.885Z,89.00
2019-04-30T05:12:33.037Z,87.60
2019-04-30T05:15:03.311Z,88.00
2019-04-30T05:17:33.366Z,87.30
2019-04-30T05:20:03.621Z,86.60
2019-04-30T05:22:33.517Z,83.50
2019-04-30T05:25:03.832Z,85.10
2019-04-30T05:27:34.153Z,86.00
2019-04-30T05:30:04.453Z,84.40
2019-04-30T05:32:35.465Z,85.00
2019-04-30T05:35:05.749Z,84.20
2019-04-30T05:37:38.481Z,82.70
2019-04-30T05:40:10.163Z,82.60
2019-04-30T05:42:40.443Z,81.90
2019-04-30T05:45:10.869Z,82.40
2019-04-30T05:47:41.171Z,83.70
2019-04-30T05:50:11.138Z,82.70
2019-04-30T05:52:41.419Z,80.70
2019-04-30T05:55:11.582Z,80.90
2019-04-30T05:57:53.034Z,80.20
2019-04-30T06:00:13.427Z,80.00
2019-04-30T06:02:43.632Z,79.50
2019-04-30T06:05:13.927Z,79.10
2019-04-30T06:07:44.556Z,77.90
2019-04-30T06:10:24.669Z,79.10
2019-04-30T06:13:09.667Z,77.90
2019-04-30T06:15:58.983Z,78.20
2019-04-30T06:18:29.260Z,77.00
2019-04-30T06:20:59.578Z,75.50
2019-04-30T06:23:31.201Z,75.00
2019-04-30T06:26:09.425Z,75.60
2019-04-30T06:28:33.028Z,76.00
2019-04-30T06:31:03.608Z,73.50
2019-04-30T06:33:33.520Z,75.40
2019-04-30T06:36:03.724Z,76.00
2019-04-30T06:38:34.024Z,72.10
2019-04-30T06:41:04.145Z,71.80
2019-04-30T06:43:34.369Z,71.20
2019-04-30T06:46:04.922Z,68.70
2019-04-30T06:48:35.540Z,70.60
2019-04-30T06:51:06.022Z,69.50
2019-04-30T06:53:36.182Z,68.20
2019-04-30T06:56:05.947Z,69.00
2019-04-30T06:58:36.030Z,66.60
2019-04-30T07:01:06.426Z,68.60
2019-04-30T07:03:36.248Z,68.50
2019-04-30T07:06:06.007Z,66.40
2019-04-30T07:09:03.987Z,68.50
2019-04-30T07:11:39.107Z,65.00
2019-04-30T07:14:10.737Z,63.10
2019-04-30T07:16:41.168Z,63.70
2019-04-30T07:19:11.678Z,64.00
2019-04-30T07:21:42.839Z,63.80
2019-04-30T07:24:13.780Z,63.40
2019-04-30T07:26:45.114Z,64.60
2019-04-30T07:29:15.874Z,62.80
2019-04-30T07:31:45.822Z,61.60
2019-04-30T07:34:16.038Z,61.60
2019-04-30T07:36:49.307Z,61.00
2019-04-30T07:39:19.238Z,62.50
2019-04-30T07:41:49.641Z,61.00
2019-04-30T07:44:30.984Z,62.90
2019-04-30T07:46:52.162Z,60.60
2019-04-30T07:49:22.254Z,59.00
2019-04-30T07:51:53.154Z,56.80
2019-04-30T07:54:24.141Z,58.20
2019-04-30T07:56:53.857Z,57.50
2019-04-30T07:59:25.610Z,59.50
2019-04-30T08:02:06.426Z,58.20
2019-04-30T08:04:51.298Z,59.10
2019-04-30T08:07:22.003Z,58.10
2019-04-30T08:09:51.962Z,59.50
2019-04-30T08:12:30.119Z,59.00
2019-04-30T08:14:53.988Z,58.00
2019-04-30T08:17:23.784Z,58.30
2019-04-30T08:19:53.998Z,59.20
2019-04-30T08:22:23.805Z,59.10
2019-04-30T08:24:53.552Z,59.40
2019-04-30T08:27:23.745Z,60.00
2019-04-30T08:29:53.573Z,59.30
2019-04-30T08:32:24.068Z,57.20
2019-04-30T08:34:54.106Z,57.50
2019-04-30T08:37:24.305Z,56.50
2019-04-30T08:39:54.224Z,58.20
2019-04-30T08:42:31.670Z,55.80
2019-04-30T08:44:56.224Z,53.30
2019-04-30T08:47:28.963Z,55.40
2019-04-30T08:49:59.483Z,55.80
2019-04-30T08:52:30.524Z,54.70
2019-04-30T08:55:12.979Z,56.10
2019-04-30T08:57:32.346Z,54.80
2019-04-30T09:00:02.253Z,54.60
2019-04-30T09:02:33.602Z,55.30
2019-04-30T09:05:09.463Z,55.80
2019-04-30T09:07:39.471Z,55.80
2019-04-30T09:10:09.392Z,54.00
2019-04-30T09:12:39.954Z,54.50
2019-04-30T09:15:10.974Z,54.10
2019-04-30T09:17:41.145Z,55.70
2019-04-30T09:20:11.065Z,55.40
2019-04-30T09:22:41.071Z,55.00
2019-04-30T09:25:11.648Z,52.20
2019-04-30T09:27:42.422Z,54.20
2019-04-30T09:30:12.371Z,54.20
2019-04-30T09:32:42.461Z,55.30
2019-04-30T09:35:12.430Z,53.70
2019-04-30T09:37:42.359Z,55.40
2019-04-30T09:40:18.299Z,54.80
2019-04-30T09:42:44.134Z,53.20
2019-04-30T09:45:13.987Z,54.00
2019-04-30T09:47:43.765Z,54.70
2019-04-30T09:50:14.010Z,54.80
2019-04-30T09:52:44.368Z,54.70
2019-04-30T09:55:14.491Z,54.70
2019-04-30T09:57:45.159Z,54.80
2019-04-30T10:00:16.069Z,53.20
2019-04-30T10:02:46.326Z,52.70
2019-04-30T10:05:18.021Z,53.40
2019-04-30T10:07:49.339Z,54.40
2019-04-30T10:10:23.020Z,52.80
2019-04-30T10:12:53.470Z,53.00
2019-04-30T10:15:34.916Z,52.40
2019-04-30T10:18:05.695Z,51.20
2019-04-30T10:20:41.632Z,51.10
2019-04-30T10:23:11.569Z,50.10
2019-04-30T10:25:41.752Z,48.90
2019-04-30T10:28:11.657Z,50.10
2019-04-30T10:30:41.880Z,47.20
2019-04-30T10:33:12.214Z,48.40
2019-04-30T10:35:42.128Z,47.10
2019-04-30T10:38:12.053Z,47.60
2019-04-30T10:40:42.550Z,48.40
2019-04-30T10:43:12.872Z,49.50
2019-04-30T10:45:42.889Z,47.80
2019-04-30T10:48:13.179Z,46.20
2019-04-30T10:50:43.487Z,47.40
2019-04-30T10:53:13.682Z,45.00
2019-04-30T10:55:43.796Z,47.00
2019-04-30T10:58:15.469Z,46.50
2019-04-30T11:00:49.878Z,47.30
2019-04-30T11:03:22.971Z,45.50
2019-04-30T11:05:52.260Z,45.80
2019-04-30T11:08:22.183Z,45.00
2019-04-30T11:10:52.218Z,44.70
2019-04-30T11:13:22.177Z,44.20
2019-04-30T11:15:51.935Z,44.40
2019-04-30T11:18:22.095Z,43.40
2019-04-30T11:20:52.373Z,44.20
2019-04-30T11:23:22.940Z,46.00
2019-04-30T11:25:53.725Z,46.30
2019-04-30T11:28:26.235Z,46.50
2019-04-30T11:31:16.907Z,46.20
2019-04-30T11:33:47.586Z,47.50
2019-04-30T11:36:19.364Z,47.00
2019-04-30T11:38:49.836Z,47.70
2019-04-30T11:41:30.057Z,47.50
2019-04-30T11:43:51.676Z,47.90
2019-04-30T11:47:04.726Z,46.30
2019-04-30T11:49:34.676Z,44.90
2019-04-30T11:52:04.702Z,45.10
2019-04-30T11:54:34.476Z,47.10
2019-04-30T11:57:05.130Z,45.80
2019-04-30T11:59:35.333Z,45.30
2019-04-30T12:02:12.201Z,45.80
2019-04-30T12:04:42.344Z,46.30
2019-04-30T12:07:22.924Z,46.10
2019-04-30T12:10:15.276Z,46.00
2019-04-30T12:12:45.608Z,45.20
2019-04-30T12:15:15.810Z,43.80
2019-04-30T12:17:46.036Z,44.40
2019-04-30T12:20:15.942Z,42.90
2019-04-30T12:22:45.888Z,43.50
2019-04-30T12:25:16.196Z,43.90
2019-04-30T12:27:48.820Z,44.10
2019-04-30T12:30:20.707Z,44.20
2019-04-30T12:32:50.921Z,43.80
2019-04-30T12:35:21.048Z,43.80
2019-04-30T12:37:52.507Z,43.20
2019-04-30T12:40:28.731Z,43.00
2019-04-30T12:42:54.671Z,42.20
2019-04-30T12:45:24.549Z,41.70
2019-04-30T12:47:58.836Z,43.70
2019-04-30T12:50:49.142Z,44.00
2019-04-30T12:53:37.606Z,44.40
2019-04-30T12:56:27.277Z,43.90
2019-04-30T12:58:58.291Z,42.10
2019-04-30T13:01:31.775Z,42.60
2019-04-30T13:04:01.470Z,42.70
2019-04-30T13:06:32.517Z,42.50
2019-04-30T13:09:03.305Z,40.10
2019-04-30T13:11:34.586Z,39.70
2019-04-30T13:14:05.611Z,39.10
2019-04-30T13:16:35.983Z,40.00
2019-04-30T13:19:05.862Z,39.10
2019-04-30T13:21:36.018Z,39.80
2019-04-30T13:24:05.849Z,40.60
2019-04-30T13:26:36.158Z,40.30
2019-04-30T13:29:11.663Z,40.90
2019-04-30T13:31:41.983Z,40.90
2019-04-30T13:34:30.016Z,40.30
2019-04-30T13:37:00.204Z,40.90
2019-04-30T13:39:47.524Z,40.90
2019-04-30T13:42:29.357Z,39.90
2019-04-30T13:44:59.776Z,40.00
2019-04-30T13:47:30.458Z,40.40
2019-04-30T13:50:00.687Z,39.40
2019-04-30T13:52:31.068Z,39.60
2019-04-30T13:55:01.797Z,39.70
2019-04-30T13:57:34.202Z,40.10
2019-04-30T14:00:03.764Z,40.10
2019-04-30T14:02:36.840Z,39.40
2019-04-30T14:05:13.593Z,38.60
2019-04-30T14:08:19.934Z,39.50
2019-04-30T14:10:50.665Z,40.50
2019-04-30T14:13:20.849Z,40.90
2019-04-30T14:15:50.800Z,41.00
2019-04-30T14:18:28.447Z,39.90
2019-04-30T14:20:52.868Z,39.80
2019-04-30T14:23:22.885Z,39.40
2019-04-30T14:25:56.532Z,39.70
2019-04-30T14:28:25.069Z,38.60
2019-04-30T14:30:55.396Z,37.70
2019-04-30T14:33:26.817Z,37.20
2019-04-30T14:35:56.850Z,37.50
2019-04-30T14:38:26.841Z,37.10
2019-04-30T14:40:56.825Z,36.50
2019-04-30T14:43:42.539Z,35.90
2019-04-30T14:46:32.460Z,36.60
2019-04-30T14:49:22.145Z,34.10
2019-04-30T14:51:52.664Z,34.90
2019-04-30T14:54:28.866Z,34.60
2019-04-30T14:57:06.047Z,33.90
2019-04-30T14:59:58.825Z,33.60
2019-04-30T15:02:36.319Z,34.00
2019-04-30T15:05:08.983Z,33.30
2019-04-30T15:07:39.672Z,32.40
2019-04-30T15:10:09.728Z,31.80
2019-04-30T15:12:39.906Z,31.80
2019-04-30T15:15:10.919Z,31.40
2019-04-30T15:17:41.229Z,31.00
2019-04-30T15:20:11.655Z,31.00
2019-04-30T15:22:48.801Z,31.10
2019-04-30T15:25:18.972Z,32.00
2019-04-30T15:27:49.797Z,32.20
2019-04-30T15:30:22.016Z,30.20
2019-04-30T15:32:55.808Z,30.10
2019-04-30T15:35:25.870Z,29.90
2019-04-30T15:37:59.013Z,29.80
2019-04-30T15:40:29.384Z,29.00
2019-04-30T15:43:02.387Z,28.50
2019-04-30T15:45:32.601Z,28.80
2019-04-30T15:48:02.942Z,29.40
2019-04-30T15:50:33.393Z,29.30
2019-04-30T15:53:03.700Z,28.90
2019-04-30T15:55:33.714Z,29.20
2019-04-30T15:58:17.552Z,29.40
2019-04-30T16:00:49.433Z,29.20
2019-04-30T16:03:24.166Z,29.50
2019-04-30T16:05:54.648Z,29.00
2019-04-30T16:08:48.793Z,28.70
2019-04-30T16:11:40.615Z,28.40
2019-04-30T16:14:21.766Z,28.80
2019-04-30T16:17:03.560Z,28.70
2019-04-30T16:19:33.748Z,27.30
2019-04-30T16:22:03.981Z,26.50
2019-04-30T16:24:33.892Z,25.00
2019-04-30T16:27:09.152Z,24.50
2019-04-30T16:29:40.721Z,21.90
2019-04-30T16:32:10.932Z,21.50
2019-04-30T16:34:41.349Z,21.00
2019-04-30T16:37:11.674Z,20.80
2019-04-30T16:39:43.795Z,21.90
2019-04-30T16:42:13.794Z,21.70
2019-04-30T16:44:44.870Z,20.30
2019-04-30T16:47:16.933Z,21.20
2019-04-30T16:49:49.260Z,19.50
2019-04-30T16:52:19.176Z,19.00
2019-04-30T16:54:49.924Z,19.50
2019-04-30T16:57:21.210Z,19.70
2019-04-30T16:59:53.432Z,20.00
2019-04-30T17:02:26.104Z,20.30
2019-04-30T17:05:01.939Z,19.70
2019-04-30T17:07:57.029Z,19.80
2019-04-30T17:10:55.231Z,20.40
2019-04-30T17:13:47.404Z,19.90
2019-04-30T17:16:21.627Z,20.10
2019-04-30T17:18:51.567Z,20.00
2019-04-30T17:21:21.644Z,20.60
2019-04-30T17:23:52.350Z,21.00
2019-04-30T17:26:22.658Z,20.80
2019-04-30T17:28:52.505Z,20.20
2019-04-30T17:31:22.509Z,20.90
2019-04-30T17:33:53.006Z,21.10
2019-04-30T17:36:22.966Z,20.30
2019-04-30T17:38:53.385Z,21.30
2019-04-30T17:41:23.760Z,21.10
2019-04-30T17:43:54.008Z,21.80
2019-04-30T17:46:24.236Z,22.00
2019-04-30T17:48:55.335Z,23.00
2019-04-30T17:51:25.290Z,23.10
2019-04-30T17:54:14.740Z,22.20
2019-04-30T17:56:45.375Z,22.60
2019-04-30T17:59:15.352Z,22.50
2019-04-30T18:01:52.155Z,23.10
2019-04-30T18:04:22.444Z,23.60
2019-04-30T18:06:53.973Z,24.10
2019-04-30T18:09:24.001Z,24.50
2019-04-30T18:11:54.268Z,25.00
2019-04-30T18:14:24.534Z,24.70
2019-04-30T18:16:54.315Z,25.20
2019-04-30T18:19:34.202Z,25.30
2019-04-30T18:22:09.515Z,26.20
2019-04-30T18:25:02.958Z,26.60
2019-04-30T18:27:45.361Z,27.50
2019-04-30T18:30:12.199Z,27.70
2019-04-30T18:32:42.343Z,28.40
2019-04-30T18:35:12.512Z,28.40
2019-04-30T18:37:42.837Z,28.50
2019-04-30T18:40:12.726Z,28.90
2019-04-30T18:42:42.655Z,28.80
2019-04-30T18:45:12.643Z,29.10
2019-04-30T18:47:42.549Z,29.20
2019-04-30T18:50:12.517Z,29.30
2019-04-30T18:52:43.079Z,29.60
2019-04-30T18:55:13.345Z,30.00
2019-04-30T18:57:55.766Z,30.00
2019-04-30T19:00:19.781Z,30.10
2019-04-30T19:02:50.473Z,30.40
2019-04-30T19:05:26.896Z,30.10
2019-04-30T19:08:02.446Z,31.40
2019-04-30T19:10:55.639Z,30.90
2019-04-30T19:13:44.636Z,30.90
2019-04-30T19:16:33.002Z,31.30
2019-04-30T19:19:12.778Z,31.50
2019-04-30T19:21:42.866Z,32.10
2019-04-30T19:24:12.743Z,32.60
2019-04-30T19:26:43.663Z,33.10
2019-04-30T19:29:13.546Z,33.30
2019-04-30T19:31:43.457Z,33.40
2019-04-30T19:34:13.513Z,33.70
2019-04-30T19:36:43.495Z,33.90
2019-04-30T19:39:15.433Z,33.80
2019-04-30T19:41:45.395Z,33.80
2019-04-30T19:44:15.317Z,34.30
2019-04-30T19:46:45.759Z,34.20
2019-04-30T19:49:16.187Z,34.10
2019-04-30T19:51:46.155Z,33.70
2019-04-30T19:54:16.136Z,33.90
2019-04-30T19:56:46.086Z,34.20
2019-04-30T19:59:16.284Z,34.30
2019-04-30T20:01:48.821Z,34.50
2019-04-30T20:04:18.955Z,34.70
2019-04-30T20:06:49.584Z,34.90
2019-04-30T20:09:19.795Z,35.00
2019-04-30T20:11:49.679Z,35.30
2019-04-30T20:14:19.521Z,35.50
2019-04-30T20:16:49.652Z,35.70
2019-04-30T20:19:19.946Z,36.10
2019-04-30T20:21:53.640Z,36.30
2019-04-30T20:24:21.543Z,36.70
2019-04-30T20:26:58.248Z,37.20
2019-04-30T20:29:23.060Z,37.30
2019-04-30T20:31:52.831Z,39.20
2019-04-30T20:34:23.946Z,42.30
2019-04-30T20:36:54.195Z,43.30
2019-04-30T20:39:39.602Z,44.80
2019-04-30T20:42:09.776Z,45.40
2019-04-30T20:44:39.908Z,47.00
2019-04-30T20:47:10.826Z,48.00
2019-04-30T20:49:40.689Z,47.90
2019-04-30T20:52:10.986Z,47.80
2019-04-30T20:54:40.695Z,48.90
2019-04-30T20:57:10.582Z,49.10
2019-04-30T20:59:41.126Z,48.80
2019-04-30T21:02:11.118Z,48.30
2019-04-30T21:04:41.443Z,49.20
2019-04-30T21:07:12.044Z,50.00
2019-04-30T21:09:42.112Z,51.80
2019-04-30T21:12:12.023Z,51.90
2019-04-30T21:14:41.946Z,50.60
2019-04-30T21:17:11.754Z,50.00
2019-04-30T21:19:41.601Z,50.50
2019-04-30T21:22:11.813Z,50.30
2019-04-30T21:24:41.970Z,50.20
2019-04-30T21:27:12.844Z,51.60
2019-04-30T21:29:44.206Z,51.80
2019-04-30T21:32:22.609Z,52.50
2019-04-30T21:34:56.426Z,53.00
2019-04-30T21:37:27.121Z,54.50
2019-04-30T21:39:58.536Z,55.10
2019-04-30T21:42:28.520Z,55.20
2019-04-30T21:44:58.647Z,55.20
2019-04-30T21:47:28.510Z,55.40
2019-04-30T21:49:58.419Z,55.40
2019-04-30T21:52:28.939Z,57.10
2019-04-30T21:54:59.588Z,56.60
2019-04-30T21:57:29.559Z,56.70
2019-04-30T21:59:59.307Z,57.20
2019-04-30T22:02:29.342Z,57.90
2019-04-30T22:04:59.219Z,58.10
2019-04-30T22:07:29.458Z,59.00
2019-04-30T22:09:59.743Z,58.40
2019-04-30T22:12:31.211Z,58.40
2019-04-30T22:15:02.435Z,58.80
2019-04-30T22:17:34.261Z,60.10
2019-04-30T22:20:07.232Z,60.00
2019-04-30T22:22:36.472Z,61.20
2019-04-30T22:25:06.375Z,61.40
2019-04-30T22:27:36.955Z,61.40
2019-04-30T22:30:07.199Z,61.80
2019-04-30T22:32:37.288Z,61.60
2019-04-30T22:35:43.915Z,61.50
2019-04-30T22:38:16.435Z,61.90
2019-04-30T22:40:48.759Z,62.00
2019-04-30T22:43:18.449Z,62.40
2019-04-30T22:45:54.262Z,63.70
2019-04-30T22:48:24.295Z,64.50
2019-04-30T22:50:54.811Z,65.20
2019-04-30T22:53:25.250Z,65.70
2019-04-30T22:55:55.379Z,66.80
2019-04-30T22:58:25.661Z,67.70
2019-04-30T23:01:04.081Z,68.00
2019-04-30T23:03:34.121Z,68.20
2019-04-30T23:06:04.369Z,68.60
2019-04-30T23:08:34.352Z,68.60
2019-04-30T23:11:04.601Z,69.20
2019-04-30T23:13:35.651Z,69.80
2019-04-30T23:16:05.937Z,69.50
2019-04-30T23:18:36.275Z,69.70
2019-04-30T23:21:06.111Z,69.20
2019-04-30T23:23:36.308Z,69.10
2019-04-30T23:26:06.126Z,68.90
2019-04-30T23:28:36.348Z,68.50
2019-04-30T23:31:06.565Z,68.80
2019-04-30T23:33:36.667Z,68.50
2019-04-30T23:36:06.777Z,68.70
2019-04-30T23:38:36.926Z,68.50
2019-04-30T23:41:07.012Z,68.40
2019-04-30T23:43:37.165Z,68.90
2019-04-30T23:46:06.976Z,69.10
2019-04-30T23:48:37.500Z,70.40
2019-04-30T23:51:07.929Z,70.80
2019-04-30T23:53:37.696Z,70.60
2019-04-30T23:56:07.563Z,71.00
2019-04-30T23:58:37.722Z,71.50
